Time;durP1;ratioP1;P1;durP2;ratioP2;P2;SDS_P1;SDS_P2;PMS_P1;PMS_P2;Temp;Humidity;BMP_temperature;BMP_pressure;BME280_temperature;BME280_humidity;BME280_pressure;Samples;Min_cycle;Max_cycle;Signal;HPM_P1;HPM_P2
2022/10/18 00:01:57;;;;;;;15.38;11.13;;;;;;;13.20;100.00;102303.22;4937289;29;20206;-42
2022/10/18 00:04:22;;;;;;;19.42;11.85;;;;;;;13.17;100.00;102293.41;4947347;28;20234;-42
2022/10/18 00:06:47;;;;;;;20.45;12.07;;;;;;;13.02;100.00;102290.22;4934895;29;20183;-43
2022/10/18 00:09:13;;;;;;;22.02;12.05;;;;;;;13.01;100.00;102294.75;4943064;29;20191;-44
2022/10/18 00:11:39;;;;;;;15.95;11.20;;;;;;;13.09;100.00;102294.53;4949197;29;20552;-43
2022/10/18 00:14:05;;;;;;;15.38;10.43;;;;;;;13.11;100.00;102300.75;4934727;29;20192;-42
2022/10/18 00:16:30;;;;;;;19.70;11.40;;;;;;;13.07;100.00;102304.44;4951740;28;20273;-46
2022/10/18 00:18:56;;;;;;;18.35;12.05;;;;;;;13.03;100.00;102306.34;4944458;29;20205;-44
2022/10/18 00:21:23;;;;;;;16.25;11.73;;;;;;;12.95;100.00;102311.03;4951409;28;20190;-44
2022/10/18 00:23:49;;;;;;;22.77;13.45;;;;;;;12.95;100.00;102305.66;4949681;28;20573;-45
2022/10/18 00:26:19;;;;;;;20.10;12.93;;;;;;;12.97;100.00;102303.81;4939643;28;20587;-45
2022/10/18 00:28:48;;;;;;;23.08;13.50;;;;;;;12.95;100.00;102303.81;4934824;29;20221;-47
2022/10/18 00:31:20;;;;;;;25.65;15.38;;;;;;;12.91;100.00;102299.44;4934495;29;20267;-45
2022/10/18 00:33:50;;;;;;;20.20;14.20;;;;;;;12.94;100.00;102312.84;4937245;29;20233;-46
2022/10/18 00:36:15;;;;;;;19.48;12.77;;;;;;;12.92;100.00;102314.69;4949426;28;20294;-45
2022/10/18 00:38:41;;;;;;;22.42;14.68;;;;;;;12.84;100.00;102319.34;4934497;29;20263;-45
2022/10/18 00:41:09;;;;;;;13.40;11.10;;;;;;;12.92;100.00;102321.84;4940227;29;20190;-42
2022/10/18 00:43:51;;;;;;;23.85;13.75;;;;;;;12.86;100.00;102322.88;4949736;28;20752;-46
2022/10/18 00:46:17;;;;;;;26.77;14.65;;;;;;;12.80;100.00;102325.72;4936467;28;20194;-45
2022/10/18 00:48:42;;;;;;;23.35;14.68;;;;;;;12.81;100.00;102321.22;4950785;28;20182;-44
2022/10/18 00:51:08;;;;;;;19.83;13.65;;;;;;;12.82;100.00;102329.25;4944459;29;20194;-44
2022/10/18 00:53:34;;;;;;;20.85;12.82;;;;;;;12.84;100.00;102331.91;4948474;28;20202;-45
2022/10/18 00:56:00;;;;;;;20.05;13.70;;;;;;;12.88;100.00;102325.53;4967167;28;20745;-44
2022/10/18 00:58:26;;;;;;;22.00;13.77;;;;;;;12.83;100.00;102336.38;4953236;28;20210;-44
2022/10/18 01:00:51;;;;;;;18.85;12.57;;;;;;;12.84;100.00;102334.63;4959142;28;20222;-43
2022/10/18 01:03:17;;;;;;;27.65;13.80;;;;;;;12.79;100.00;102329.34;4944296;28;20499;-43
2022/10/18 01:05:45;;;;;;;19.95;11.82;;;;;;;12.86;100.00;102330.09;4952714;28;20187;-43
2022/10/18 01:08:29;;;;;;;20.85;11.45;;;;;;;12.84;100.00;102338.19;4952939;28;20229;-43
2022/10/18 01:11:06;;;;;;;19.08;12.60;;;;;;;12.82;100.00;102344.53;4952946;29;20202;-43
2022/10/18 01:14:00;;;;;;;25.42;12.50;;;;;;;12.83;100.00;102348.97;4944809;28;20229;-46
2022/10/18 01:16:30;;;;;;;20.95;12.63;;;;;;;12.85;100.00;102341.75;4938862;29;20210;-43
2022/10/18 01:18:55;;;;;;;23.67;13.88;;;;;;;12.72;100.00;102344.72;4942229;29;20191;-45
2022/10/18 01:21:50;;;;;;;22.13;13.90;;;;;;;12.76;100.00;102342.84;4946250;29;20753;-45
2022/10/18 01:24:48;;;;;;;29.67;16.45;;;;;;;12.68;100.00;102345.72;4950334;28;20230;-44
2022/10/18 01:27:24;;;;;;;27.02;15.68;;;;;;;12.75;100.00;102349.16;4919728;29;20218;-44
2022/10/18 01:30:20;;;;;;;21.38;15.25;;;;;;;12.73;100.00;102359.94;4936666;28;20192;-43
2022/10/18 01:32:55;;;;;;;29.92;17.48;;;;;;;12.77;100.00;102358.06;4933366;29;20214;-45
2022/10/18 01:35:26;;;;;;;26.42;17.15;;;;;;;12.82;100.00;102361.53;4936680;29;20202;-44
2022/10/18 01:37:57;;;;;;;31.38;19.17;;;;;;;12.80;100.00;102355.31;4942705;28;20194;-54
2022/10/18 01:40:24;;;;;;;33.20;19.38;;;;;;;12.82;100.00;102341.84;4946760;29;20211;-43
2022/10/18 01:42:50;;;;;;;36.30;19.40;;;;;;;12.82;100.00;102352.59;4949562;28;20258;-45
2022/10/18 01:45:17;;;;;;;34.75;19.73;;;;;;;12.83;100.00;102352.53;4940448;29;20238;-44
2022/10/18 01:47:45;;;;;;;29.73;19.30;;;;;;;12.82;100.00;102348.09;4936418;29;20183;-43
2022/10/18 01:50:11;;;;;;;32.33;19.08;;;;;;;12.83;100.00;102351.66;4952445;28;20179;-43
2022/10/18 01:52:48;;;;;;;32.65;20.08;;;;;;;12.78;100.00;102352.63;4943226;28;20350;-41
2022/10/18 01:55:14;;;;;;;36.75;19.98;;;;;;;12.76;100.00;102350.91;4933226;29;20203;-44
2022/10/18 01:57:51;;;;;;;36.63;20.00;;;;;;;12.73;100.00;102338.44;4933382;29;20189;-44
2022/10/18 02:00:33;;;;;;;40.55;20.17;;;;;;;12.70;100.00;102338.50;4945235;29;20653;-44
2022/10/18 02:03:24;;;;;;;35.25;18.95;;;;;;;12.65;100.00;102351.16;4935454;28;20225;-42
2022/10/18 02:06:06;;;;;;;33.75;18.60;;;;;;;12.67;100.00;102352.00;4941218;29;20590;-43
2022/10/18 02:08:40;;;;;;;32.17;17.73;;;;;;;12.70;100.00;102354.66;4934319;28;20222;-43
2022/10/18 02:11:09;;;;;;;31.92;18.25;;;;;;;12.64;100.00;102349.41;4932909;29;20582;-44
2022/10/18 02:13:42;;;;;;;31.17;18.75;;;;;;;12.63;100.00;102354.81;4936848;28;20203;-44
2022/10/18 02:16:18;;;;;;;33.95;17.75;;;;;;;12.60;100.00;102341.44;4944351;28;20226;-48
2022/10/18 02:19:12;;;;;;;35.63;18.83;;;;;;;12.52;100.00;102339.78;4939089;29;20565;-43
2022/10/18 02:21:40;;;;;;;41.13;17.52;;;;;;;12.52;100.00;102347.84;4929916;29;20623;-44
2022/10/18 02:24:08;;;;;;;37.78;17.25;;;;;;;12.55;100.00;102354.97;4946549;29;20637;-42
2022/10/18 02:26:34;;;;;;;33.30;18.77;;;;;;;12.51;100.00;102351.47;4956041;28;20182;-43
2022/10/18 02:29:00;;;;;;;33.10;17.48;;;;;;;12.50;100.00;102338.94;4950220;28;20535;-45
2022/10/18 02:31:29;;;;;;;33.10;17.67;;;;;;;12.48;100.00;102353.31;4939207;29;20191;-45
2022/10/18 02:34:19;;;;;;;34.22;17.58;;;;;;;12.49;100.00;102352.44;4938744;29;20285;-44
2022/10/18 02:36:57;;;;;;;39.72;18.00;;;;;;;12.42;100.00;102354.38;4955486;28;20197;-43
2022/10/18 02:39:31;;;;;;;25.70;14.85;;;;;;;12.48;100.00;102353.31;4948488;28;20199;-44
2022/10/18 02:41:57;;;;;;;33.78;17.17;;;;;;;12.43;100.00;102353.44;4949913;29;20304;-43
2022/10/18 02:44:23;;;;;;;28.52;16.50;;;;;;;12.43;100.00;102350.75;4945103;29;20234;-42
2022/10/18 02:46:49;;;;;;;31.95;16.63;;;;;;;12.42;100.00;102349.00;4937391;29;20235;-46
2022/10/18 02:49:14;;;;;;;42.05;17.45;;;;;;;12.38;100.00;102359.84;4943459;29;20326;-45
2022/10/18 02:51:40;;;;;;;25.42;15.20;;;;;;;12.39;100.00;102348.16;4950108;29;20191;-44
2022/10/18 02:54:07;;;;;;;37.63;17.33;;;;;;;12.33;100.00;102342.00;4938091;28;20616;-45
2022/10/18 02:56:33;;;;;;;33.35;16.85;;;;;;;12.26;100.00;102342.16;4939897;29;20214;-44
2022/10/18 02:58:58;;;;;;;37.35;17.30;;;;;;;12.33;100.00;102327.66;4946270;29;20607;-44
2022/10/18 03:01:24;;;;;;;33.97;17.08;;;;;;;12.26;100.00;102336.78;4943525;29;20186;-45
2022/10/18 03:03:50;;;;;;;33.78;18.25;;;;;;;12.32;100.00;102340.22;4937284;28;20211;-41
2022/10/18 03:06:16;;;;;;;33.15;18.17;;;;;;;12.30;100.00;102342.06;4947937;29;20290;-45
2022/10/18 03:08:41;;;;;;;37.00;17.17;;;;;;;12.31;100.00;102340.25;4948108;28;20198;-43
2022/10/18 03:11:07;;;;;;;37.47;19.05;;;;;;;12.35;100.00;102350.00;4933899;29;20208;-44
2022/10/18 03:13:35;;;;;;;33.50;17.77;;;;;;;12.31;100.00;102341.16;4948273;28;20629;-43
2022/10/18 03:16:01;;;;;;;32.58;17.17;;;;;;;12.26;100.00;102334.97;4946042;29;20258;-43
2022/10/18 03:18:26;;;;;;;38.15;18.48;;;;;;;12.29;100.00;102336.72;4942210;29;20658;-43
2022/10/18 03:20:52;;;;;;;27.80;17.73;;;;;;;12.33;100.00;102341.09;4946059;28;20191;-46
2022/10/18 03:23:17;;;;;;;39.40;17.50;;;;;;;12.32;100.00;102347.41;4935458;29;20206;-43
2022/10/18 03:25:43;;;;;;;27.50;17.58;;;;;;;12.31;100.00;102340.25;4934899;29;20223;-45
2022/10/18 03:28:09;;;;;;;33.45;19.02;;;;;;;12.32;100.00;102342.91;4948531;29;20194;-45
2022/10/18 03:30:34;;;;;;;36.70;18.05;;;;;;;12.32;100.00;102340.22;4954967;28;20175;-44
2022/10/18 03:32:59;;;;;;;29.65;16.30;;;;;;;12.33;100.00;102343.78;4964287;28;20244;-47
2022/10/18 03:35:25;;;;;;;31.67;16.50;;;;;;;12.34;100.00;102341.06;4941624;29;20207;-45
2022/10/18 03:37:51;;;;;;;32.00;17.05;;;;;;;12.31;100.00;102341.16;4954970;28;20266;-44
2022/10/18 03:40:16;;;;;;;37.85;18.85;;;;;;;12.32;100.00;102353.66;4934819;29;20282;-44
2022/10/18 03:42:42;;;;;;;35.20;18.83;;;;;;;12.35;100.00;102341.94;4949094;28;20218;-43
2022/10/18 03:45:08;;;;;;;45.47;20.80;;;;;;;12.35;100.00;102345.56;4954698;29;20541;-43
2022/10/18 03:47:33;;;;;;;37.53;19.55;;;;;;;12.39;100.00;102342.78;4954378;28;20175;-43
2022/10/18 03:49:58;;;;;;;43.08;20.60;;;;;;;12.38;100.00;102343.72;4943412;29;20202;-46
2022/10/18 03:52:24;;;;;;;38.20;19.45;;;;;;;12.33;100.00;102343.78;4952847;28;20257;-44
2022/10/18 03:54:49;;;;;;;34.83;19.95;;;;;;;12.45;100.00;102348.03;4934549;29;20219;-44
2022/10/18 03:57:15;;;;;;;44.80;20.35;;;;;;;12.30;100.00;102349.25;4935068;29;20587;-44
2022/10/18 03:59:41;;;;;;;35.95;19.38;;;;;;;12.27;100.00;102339.44;4941429;29;20199;-42
2022/10/18 04:02:06;;;;;;;35.35;18.95;;;;;;;12.27;100.00;102339.44;4938248;29;20186;-44
2022/10/18 04:04:32;;;;;;;33.70;19.05;;;;;;;12.23;100.00;102353.84;4950251;28;20219;-43
2022/10/18 04:06:57;;;;;;;40.80;18.48;;;;;;;12.22;100.00;102344.00;4944492;29;20562;-44
2022/10/18 04:09:22;;;;;;;35.65;19.80;;;;;;;12.25;100.00;102352.03;4943048;29;20609;-45
2022/10/18 04:11:51;;;;;;;34.63;18.98;;;;;;;12.22;100.00;102352.06;4951537;28;20258;-46
2022/10/18 04:14:17;;;;;;;33.97;18.38;;;;;;;12.22;100.00;102345.81;4935804;29;20346;-46
2022/10/18 04:16:42;;;;;;;33.20;17.85;;;;;;;12.21;100.00;102339.56;4936991;29;20286;-47
2022/10/18 04:19:07;;;;;;;28.75;16.00;;;;;;;12.25;100.00;102340.41;4948923;28;20270;-44
2022/10/18 04:21:33;;;;;;;32.90;17.30;;;;;;;12.22;100.00;102335.94;4954289;28;20170;-46
2022/10/18 04:23:58;;;;;;;36.83;18.30;;;;;;;12.22;100.00;102338.63;4940973;29;20387;-47
2022/10/18 04:26:24;;;;;;;27.60;15.00;;;;;;;12.31;100.00;102334.88;4936854;29;20274;-46
2022/10/18 04:28:50;;;;;;;26.73;16.17;;;;;;;12.32;100.00;102328.59;4941845;28;20571;-43
2022/10/18 04:31:15;;;;;;;31.42;16.08;;;;;;;12.31;100.00;102329.50;4953925;29;20189;-44
2022/10/18 04:33:40;;;;;;;32.35;16.58;;;;;;;12.32;100.00;102332.16;4936904;28;20203;-47
2022/10/18 04:36:06;;;;;;;33.20;17.52;;;;;;;12.28;100.00;102326.88;4928055;29;20291;-47
2022/10/18 04:38:32;;;;;;;33.38;17.65;;;;;;;12.32;100.00;102316.03;4933392;29;20168;-43
2022/10/18 04:40:57;;;;;;;36.75;17.95;;;;;;;12.30;100.00;102312.50;4938987;29;20222;-44
2022/10/18 04:43:23;;;;;;;36.15;20.02;;;;;;;12.26;100.00;102324.22;4942986;29;20815;-46
2022/10/18 04:45:49;;;;;;;44.03;21.02;;;;;;;12.26;100.00;102329.59;4938986;29;20183;-46
2022/10/18 04:48:19;;;;;;;37.28;21.15;;;;;;;12.23;100.00;102331.47;4943392;29;20669;-45
2022/10/18 04:50:48;;;;;;;43.63;20.13;;;;;;;12.24;100.00;102331.44;4953540;28;20544;-44
2022/10/18 04:53:15;;;;;;;33.15;21.02;;;;;;;12.22;100.00;102329.69;4949202;28;20220;-44
2022/10/18 04:55:49;;;;;;;36.47;20.35;;;;;;;12.25;100.00;102318.91;4943132;28;20572;-46
2022/10/18 04:58:16;;;;;;;40.33;22.83;;;;;;;12.18;100.00;102314.56;4937369;29;20198;-46
2022/10/18 05:00:42;;;;;;;36.47;20.02;;;;;;;12.18;100.00;102326.22;4946753;29;20204;-43
2022/10/18 05:03:11;;;;;;;50.75;21.98;;;;;;;12.17;100.00;102321.72;4953320;28;20210;-45
2022/10/18 05:05:36;;;;;;;45.88;22.25;;;;;;;12.13;100.00;102314.66;4944078;28;20544;-43
2022/10/18 05:08:02;;;;;;;35.40;19.42;;;;;;;12.19;100.00;102306.47;4934204;29;20266;-44
2022/10/18 05:10:27;;;;;;;45.42;22.90;;;;;;;12.14;100.00;102308.38;4948749;29;20202;-43
2022/10/18 05:12:53;;;;;;;46.30;20.83;;;;;;;12.07;100.00;102307.63;4934312;29;20694;-42
2022/10/18 05:15:18;;;;;;;48.25;21.70;;;;;;;12.07;100.00;102307.63;4947890;29;20581;-45
2022/10/18 05:17:44;;;;;;;44.13;22.60;;;;;;;12.08;100.00;102312.06;4944751;28;20723;-46
2022/10/18 05:20:09;;;;;;;40.35;22.35;;;;;;;12.04;100.00;102296.03;4937383;29;20183;-44
2022/10/18 05:22:35;;;;;;;43.63;20.98;;;;;;;12.05;100.00;102300.53;4937847;29;20242;-45
2022/10/18 05:25:00;;;;;;;38.55;20.38;;;;;;;12.06;100.00;102303.16;4934635;29;20186;-48
2022/10/18 05:27:27;;;;;;;38.28;20.95;;;;;;;12.00;100.00;102294.34;4949839;29;20578;-46
2022/10/18 05:29:53;;;;;;;39.50;21.77;;;;;;;12.03;100.00;102288.91;4964525;28;20215;-46
2022/10/18 05:32:18;;;;;;;35.55;20.58;;;;;;;12.00;100.00;102291.66;4945931;28;20627;-45
2022/10/18 05:34:44;;;;;;;41.05;21.55;;;;;;;11.99;100.00;102304.19;4938201;29;20255;-44
2022/10/18 05:37:09;;;;;;;37.70;20.58;;;;;;;11.93;100.00;102296.25;4941435;29;20186;-47
2022/10/18 05:39:36;;;;;;;39.63;20.65;;;;;;;11.98;100.00;102307.78;4943218;29;20203;-46
2022/10/18 05:42:02;;;;;;;37.75;20.20;;;;;;;12.00;100.00;102299.72;4947751;29;20225;-43
2022/10/18 05:44:28;;;;;;;41.53;22.45;;;;;;;11.91;100.00;102288.22;4937908;28;20234;-44
2022/10/18 05:46:53;;;;;;;39.25;21.02;;;;;;;11.95;100.00;102297.13;4939765;29;20190;-46
2022/10/18 05:49:19;;;;;;;34.35;20.55;;;;;;;11.94;100.00;102312.34;4941032;28;20222;-45
2022/10/18 05:51:44;;;;;;;42.33;21.00;;;;;;;11.89;100.00;102298.13;4945664;29;20186;-42
2022/10/18 05:54:13;;;;;;;39.88;20.50;;;;;;;11.93;100.00;102296.25;4941591;28;20241;-45
2022/10/18 05:56:39;;;;;;;35.90;20.70;;;;;;;11.87;100.00;102301.72;4934162;29;20265;-44
2022/10/18 05:59:09;;;;;;;35.92;20.60;;;;;;;11.85;100.00;102299.09;4942864;29;20191;-45
2022/10/18 06:01:35;;;;;;;39.33;20.83;;;;;;;11.86;100.00;102300.84;4942538;29;20783;-46
2022/10/18 06:04:01;;;;;;;40.08;19.40;;;;;;;11.90;100.00;102307.97;4932982;29;20214;-44
2022/10/18 06:06:26;;;;;;;33.05;19.50;;;;;;;11.88;100.00;102311.59;4943512;29;20179;-46
2022/10/18 06:08:52;;;;;;;32.47;17.42;;;;;;;11.94;100.00;102309.66;4942005;29;20194;-47
2022/10/18 06:11:19;;;;;;;41.00;20.95;;;;;;;11.86;100.00;102318.75;4940487;29;20217;-47
2022/10/18 06:13:46;;;;;;;43.28;19.95;;;;;;;11.90;100.00;102325.88;4951629;28;20692;-47
2022/10/18 06:16:13;;;;;;;34.17;18.88;;;;;;;11.95;100.00;102327.53;4933018;28;20214;-43
2022/10/18 06:18:39;;;;;;;28.23;17.67;;;;;;;12.02;100.00;102336.34;4939533;29;20654;-41
2022/10/18 06:21:05;;;;;;;30.17;18.95;;;;;;;12.00;100.00;102350.75;4950562;29;20178;-42
2022/10/18 06:23:31;;;;;;;40.83;19.48;;;;;;;11.98;100.00;102341.81;4936994;28;20210;-42
2022/10/18 06:26:04;;;;;;;36.22;19.40;;;;;;;11.95;100.00;102340.09;4937552;29;20190;-45
2022/10/18 06:28:30;;;;;;;38.50;19.33;;;;;;;11.97;100.00;102334.69;4933247;28;20211;-44
2022/10/18 06:30:56;;;;;;;32.78;18.27;;;;;;;12.01;100.00;102331.91;4932725;29;20263;-46
2022/10/18 06:33:22;;;;;;;37.72;18.58;;;;;;;12.01;100.00;102334.59;4935161;29;20210;-43
2022/10/18 06:36:02;;;;;;;31.10;18.67;;;;;;;12.03;100.00;102356.06;4951303;28;20676;-45
2022/10/18 06:38:29;;;;;;;37.55;17.55;;;;;;;12.06;100.00;102358.69;4935786;28;20626;-48
2022/10/18 06:40:56;;;;;;;35.67;19.10;;;;;;;12.05;100.00;102355.13;4951138;28;20254;-47
2022/10/18 06:43:22;;;;;;;39.08;18.48;;;;;;;12.05;100.00;102359.63;4933629;28;20211;-44
2022/10/18 06:45:48;;;;;;;29.17;17.17;;;;;;;12.10;100.00;102369.34;4940538;29;20265;-46
2022/10/18 06:48:14;;;;;;;38.03;16.50;;;;;;;12.13;100.00;102357.63;4949351;28;20201;-49
2022/10/18 06:50:39;;;;;;;35.97;18.02;;;;;;;12.13;100.00;102357.63;4940989;29;20191;-45
2022/10/18 06:53:07;;;;;;;37.13;17.00;;;;;;;12.12;100.00;102355.88;4941896;29;20226;-46
2022/10/18 06:55:33;;;;;;;27.02;16.65;;;;;;;12.11;100.00;102355.00;4936644;28;20271;-42
2022/10/18 06:57:59;;;;;;;38.55;17.23;;;;;;;12.12;100.00;102361.25;4932250;29;20254;-42
2022/10/18 07:00:25;;;;;;;34.92;17.73;;;;;;;12.12;100.00;102366.63;4944113;28;20186;-42
2022/10/18 07:02:50;;;;;;;34.97;17.33;;;;;;;12.13;100.00;102374.66;4936556;29;20456;-41
2022/10/18 07:05:16;;;;;;;35.13;17.60;;;;;;;12.11;100.00;102372.91;4944220;29;20266;-43
2022/10/18 07:07:41;;;;;;;34.78;18.40;;;;;;;12.03;100.00;102367.69;4943149;28;20561;-42
2022/10/18 07:10:07;;;;;;;33.90;18.48;;;;;;;12.09;100.00;102377.41;4946033;29;20642;-43
2022/10/18 07:12:32;;;;;;;34.22;19.08;;;;;;;12.00;100.00;102378.47;4943350;29;20718;-42
2022/10/18 07:14:58;;;;;;;33.72;18.67;;;;;;;12.05;100.00;102399.91;4942805;29;20293;-41
2022/10/18 07:17:24;;;;;;;37.20;18.70;;;;;;;12.04;100.00;102404.38;4940396;29;20195;-41
2022/10/18 07:19:50;;;;;;;32.47;18.50;;;;;;;12.04;100.00;102393.63;4944430;29;20202;-42
2022/10/18 07:22:15;;;;;;;37.80;18.83;;;;;;;12.07;100.00;102395.38;4945590;29;20186;-42
2022/10/18 07:24:41;;;;;;;29.35;18.45;;;;;;;12.14;100.00;102394.34;4941509;29;20184;-43
2022/10/18 07:27:06;;;;;;;35.08;17.00;;;;;;;12.19;100.00;102392.44;4957303;28;20673;-43
2022/10/18 07:29:33;;;;;;;40.95;18.45;;;;;;;12.15;100.00;102396.09;4945816;29;20186;-43
2022/10/18 07:31:58;;;;;;;37.35;18.77;;;;;;;12.21;100.00;102404.06;5043940;22;20231;-47
2022/10/18 07:34:23;;;;;;;35.25;17.92;;;;;;;12.23;100.00;102386.09;5024132;28;20223;-44
2022/10/18 07:36:49;;;;;;;35.42;19.45;;;;;;;12.33;100.00;102392.16;5022020;28;20428;-45
2022/10/18 07:39:14;;;;;;;34.35;17.52;;;;;;;12.33;100.00;102382.31;5021722;28;20223;-48
2022/10/18 07:41:40;;;;;;;37.08;17.10;;;;;;;12.27;100.00;102379.75;5025604;28;20191;-44
2022/10/18 07:44:06;;;;;;;36.13;17.63;;;;;;;12.31;100.00;102381.47;5019239;28;20254;-45
2022/10/18 07:46:31;;;;;;;35.03;15.32;;;;;;;12.35;100.00;102377.81;5018945;28;20203;-47
2022/10/18 07:48:58;;;;;;;37.95;15.95;;;;;;;12.34;100.00;102392.16;5022255;28;20318;-49
2022/10/18 07:51:25;;;;;;;32.28;16.00;;;;;;;12.35;100.00;102385.88;5021901;28;20663;-45
2022/10/18 07:53:50;;;;;;;30.70;15.52;;;;;;;12.44;100.00;102398.22;5017676;28;20235;-45
2022/10/18 07:56:19;;;;;;;35.45;16.13;;;;;;;12.39;100.00;102393.84;5019226;28;20206;-43
2022/10/18 07:58:47;;;;;;;36.05;15.75;;;;;;;12.41;100.00;102400.97;5021429;28;20196;-43
2022/10/18 08:01:13;;;;;;;29.92;15.38;;;;;;;12.38;100.00;102392.97;5017282;28;20677;-44
2022/10/18 08:03:40;;;;;;;33.50;16.67;;;;;;;12.42;100.00;102388.41;5020601;28;20274;-42
2022/10/18 08:06:08;;;;;;;33.28;15.52;;;;;;;12.46;100.00;102393.72;5023923;28;20208;-46
2022/10/18 08:08:35;;;;;;;29.52;16.35;;;;;;;12.42;100.00;102383.03;5019911;28;20279;-47
2022/10/18 08:11:06;;;;;;;33.97;16.48;;;;;;;12.31;100.00;102377.88;5022189;28;20176;-44
2022/10/18 08:13:32;;;;;;;30.88;14.50;;;;;;;12.41;100.00;102386.66;5017236;28;20216;-46
2022/10/18 08:16:02;;;;;;;34.28;15.00;;;;;;;12.34;100.00;102384.06;5014229;28;20662;-44
2022/10/18 08:18:28;;;;;;;31.13;15.32;;;;;;;12.30;100.00;102387.75;5008158;28;20192;-47
2022/10/18 08:20:54;;;;;;;31.85;16.13;;;;;;;12.34;100.00;102386.75;5016861;28;20196;-43
2022/10/18 08:23:19;;;;;;;30.85;15.13;;;;;;;12.39;100.00;102386.66;5021199;28;20204;-44
2022/10/18 08:25:44;;;;;;;31.70;14.40;;;;;;;12.29;100.00;102390.47;5020235;28;20184;-45
2022/10/18 08:28:12;;;;;;;28.17;14.07;;;;;;;12.31;100.00;102389.53;5017914;28;20196;-42
2022/10/18 08:30:38;;;;;;;29.50;13.63;;;;;;;12.39;100.00;102393.84;5017301;28;20200;-43
2022/10/18 08:33:03;;;;;;;27.00;12.68;;;;;;;12.33;100.00;102394.84;5019345;28;20510;-46
2022/10/18 08:35:30;;;;;;;25.73;12.80;;;;;;;12.29;100.00;102396.72;5017562;28;20690;-45
2022/10/18 08:37:56;;;;;;;30.08;12.73;;;;;;;12.22;100.00;102387.00;5015871;28;20192;-44
2022/10/18 08:40:22;;;;;;;25.80;12.07;;;;;;;12.29;100.00;102401.22;5019727;28;20183;-44
2022/10/18 08:43:09;;;;;;;30.17;12.43;;;;;;;12.31;100.00;102400.28;5016253;28;20200;-45
2022/10/18 08:45:39;;;;;;;32.33;12.18;;;;;;;12.28;100.00;102404.81;5014204;28;20241;-44
2022/10/18 08:48:06;;;;;;;29.90;11.93;;;;;;;12.31;100.00;102415.50;5013450;28;20609;-44
2022/10/18 08:50:35;;;;;;;23.58;11.43;;;;;;;12.32;100.00;102411.91;5022205;28;20184;-46
2022/10/18 08:53:19;;;;;;;30.20;11.82;;;;;;;12.28;100.00;102410.19;5016353;28;20200;-44
2022/10/18 08:55:51;;;;;;;22.98;10.73;;;;;;;12.34;100.00;102413.66;5019863;28;20208;-47
2022/10/18 08:58:21;;;;;;;27.48;11.85;;;;;;;12.47;100.00;102405.34;5014274;28;20275;-45
2022/10/18 09:00:49;;;;;;;29.45;12.55;;;;;;;12.70;100.00;102397.69;5016888;28;20276;-45
2022/10/18 09:03:36;;;;;;;26.63;11.98;;;;;;;12.53;100.00;102400.72;5015651;28;20910;-45
2022/10/18 09:06:22;;;;;;;27.23;11.52;;;;;;;12.46;100.00;102404.47;5014608;28;20558;-43
2022/10/18 09:09:22;;;;;;;28.05;10.50;;;;;;;12.82;100.00;102401.00;5019826;28;20180;-47
2022/10/18 09:12:07;;;;;;;22.20;11.05;;;;;;;13.23;100.00;102389.28;5015401;28;20679;-44
2022/10/18 09:15:07;;;;;;;27.27;9.75;;;;;;;13.35;100.00;102382.72;5017444;28;20604;-48
2022/10/18 09:17:48;;;;;;;25.30;9.55;;;;;;;13.45;100.00;102375.31;5019209;28;20224;-47
2022/10/18 09:20:24;;;;;;;23.85;9.48;;;;;;;13.88;100.00;102360.69;5016510;28;20219;-45
2022/10/18 09:23:28;;;;;;;17.15;8.82;;;;;;;14.17;100.00;102370.69;5014460;28;20234;-45
2022/10/18 09:26:05;;;;;;;20.48;8.05;;;;;;;14.09;100.00;102361.91;4939702;29;20194;-45
2022/10/18 09:29:01;;;;;;;23.95;7.20;;;;;;;13.97;100.00;102350.56;5008104;28;20843;-46
2022/10/18 09:31:54;;;;;;;18.70;6.65;;;;;;;13.97;100.00;102358.66;5016862;28;20189;-50
2022/10/18 09:34:28;;;;;;;20.33;7.25;;;;;;;13.60;100.00;102346.19;5018081;28;20690;-45
2022/10/18 09:36:55;;;;;;;20.48;6.75;;;;;;;13.94;100.00;102350.63;5018458;28;20215;-44
2022/10/18 09:39:27;;;;;;;13.57;7.05;;;;;;;14.10;100.00;102339.41;5017993;28;20188;-46
2022/10/18 09:41:58;;;;;;;17.08;6.90;;;;;;;13.84;100.00;102338.38;5020523;28;20199;-44
2022/10/18 09:44:29;;;;;;;15.73;6.82;;;;;;;13.75;100.00;102339.50;5008195;28;20207;-43
2022/10/18 09:47:01;;;;;;;15.90;6.90;;;;;;;14.11;100.00;102338.50;5020437;28;20226;-44
2022/10/18 09:49:36;;;;;;;20.10;6.53;;;;;;;14.48;100.00;102338.28;5000858;28;20176;-45
2022/10/18 09:52:08;;;;;;;20.13;6.70;;;;;;;14.41;100.00;102336.72;5016260;28;20241;-44
2022/10/18 09:54:42;;;;;;;20.88;6.97;;;;;;;14.55;100.00;102336.31;5017830;28;20217;-45
2022/10/18 09:57:19;;;;;;;19.42;6.18;;;;;;;14.62;100.00;102335.19;5015138;28;20580;-44
2022/10/18 09:59:48;;;;;;;14.32;6.03;;;;;;;14.82;100.00;102337.25;5018160;28;20175;-45
2022/10/18 10:02:20;;;;;;;16.30;6.28;;;;;;;14.94;100.00;102338.69;5019229;28;20189;-45
2022/10/18 10:04:47;;;;;;;15.70;6.38;;;;;;;14.94;100.00;102341.41;5014674;28;20203;-45
2022/10/18 10:07:32;;;;;;;14.73;5.95;;;;;;;15.16;100.00;102338.88;5019477;28;20261;-44
2022/10/18 10:10:15;;;;;;;16.40;5.60;;;;;;;15.06;100.00;102330.19;5016636;28;20180;-44
2022/10/18 10:12:41;;;;;;;12.15;5.28;;;;;;;14.89;100.00;102337.94;5015292;28;20207;-45
2022/10/18 10:15:24;;;;;;;16.80;6.07;;;;;;;14.70;nan;102333.16;5018646;28;20212;-45
2022/10/18 10:18:16;;;;;;;17.35;6.72;;;;;;;14.80;100.00;102340.03;5020365;28;20191;-45
2022/10/18 10:20:45;;;;;;;14.50;5.50;;;;;;;14.96;100.00;102337.72;5015366;28;20301;-46
2022/10/18 10:23:23;;;;;;;18.20;5.95;;;;;;;15.06;100.00;102342.81;5019954;28;20294;-45
2022/10/18 10:25:58;;;;;;;18.45;6.28;;;;;;;15.03;100.00;102343.78;5012559;28;20195;-44
2022/10/18 10:28:35;;;;;;;20.77;6.07;;;;;;;14.92;100.00;102337.88;5018553;28;20334;-45
2022/10/18 10:31:25;;;;;;;17.88;6.05;;;;;;;14.62;100.00;102338.75;5016589;28;20287;-45
2022/10/18 10:34:01;;;;;;;20.02;6.05;;;;;;;14.42;100.00;102342.03;5015432;28;20290;-45
2022/10/18 10:36:28;;;;;;;19.17;5.50;;;;;;;14.26;100.00;102345.28;5023643;28;20195;-44
2022/10/18 10:39:11;;;;;;;14.48;5.43;;;;;;;14.24;100.00;102344.44;5022059;28;20238;-42
2022/10/18 10:41:39;;;;;;;12.45;4.80;;;;;;;14.44;100.00;102336.63;5013792;28;20624;-43
2022/10/18 10:44:22;;;;;;;15.95;5.25;;;;;;;15.07;100.00;102331.09;5020063;28;20259;-44
2022/10/18 10:46:53;;;;;;;13.73;4.50;;;;;;;14.95;100.00;102332.34;5021302;28;20180;-44
2022/10/18 10:49:38;;;;;;;16.05;4.43;;;;;;;14.95;100.00;102344.03;5019871;28;20199;-42
2022/10/18 10:52:06;;;;;;;13.65;4.63;;;;;;;14.98;100.00;102332.28;5019059;28;20188;-44
2022/10/18 10:54:35;;;;;;;15.23;4.45;;;;;;;14.97;100.00;102323.28;5018497;28;20209;-44
2022/10/18 10:57:04;;;;;;;12.50;3.72;;;;;;;14.97;100.00;102333.19;5019502;28;20189;-44
2022/10/18 10:59:40;;;;;;;13.93;4.30;;;;;;;15.09;100.00;102322.00;5008498;28;20184;-44
2022/10/18 11:02:19;;;;;;;16.20;4.40;;;;;;;15.07;100.00;102307.66;5020058;28;20331;-43
2022/10/18 11:04:50;;;;;;;14.23;4.03;;;;;;;14.83;100.00;102314.75;5020676;28;20419;-44
2022/10/18 11:07:31;;;;;;;11.90;3.50;;;;;;;14.84;100.00;102322.78;5021160;28;20188;-44
2022/10/18 11:10:18;;;;;;;14.52;3.80;;;;;;;15.01;100.00;102318.66;5018011;28;20180;-46
2022/10/18 11:12:45;;;;;;;11.48;4.28;;;;;;;15.19;99.98;102322.56;5014961;28;20204;-44
2022/10/18 11:15:37;;;;;;;13.40;3.70;;;;;;;15.32;99.77;102323.91;5033296;28;20192;-46